Time;durP1;ratioP1;P1;durP2;ratioP2;P2;SDS_P1;SDS_P2;PMS_P1;PMS_P2;Temp;Humidity;BMP_temperature;BMP_pressure;BME280_temperature;BME280_humidity;BME280_pressure;Samples;Min_cycle;Max_cycle;Signal;HPM_P1;HPM_P2
2023/06/02 00:01:14;;;;;;;8.70;7.90;;;;;;;15.79;nan;98950.13;5072188;28;20230;-80
2023/06/02 00:03:42;;;;;;;9.20;8.30;;;;;;;15.81;nan;98960.66;5072198;28;20195;-80
2023/06/02 00:06:11;;;;;;;9.30;8.40;;;;;;;15.74;nan;98958.22;5066705;28;20182;-79
2023/06/02 00:08:40;;;;;;;9.00;8.30;;;;;;;15.67;nan;98949.59;5061506;28;20262;-79
2023/06/02 00:11:08;;;;;;;8.50;7.80;;;;;;;15.64;nan;98943.88;5070672;28;20205;-79
2023/06/02 00:13:35;;;;;;;8.93;8.13;;;;;;;15.59;nan;98949.28;5054150;28;20193;-79
2023/06/02 00:16:03;;;;;;;9.00;8.17;;;;;;;15.54;nan;98947.38;5070474;28;20180;-79
2023/06/02 00:18:33;;;;;;;8.90;8.10;;;;;;;15.51;nan;98947.13;5062753;28;20249;-79
2023/06/02 00:21:01;;;;;;;9.30;8.50;;;;;;;15.44;nan;98952.75;5060489;28;20544;-79
2023/06/02 00:23:32;;;;;;;8.10;7.40;;;;;;;15.40;nan;98940.84;5072153;28;20644;-80
2023/06/02 00:26:00;;;;;;;9.43;8.37;;;;;;;15.35;nan;98940.88;5068959;28;20199;-79
2023/06/02 00:28:28;;;;;;;9.57;8.57;;;;;;;15.36;nan;98937.06;5049154;28;20547;-80
2023/06/02 00:30:55;;;;;;;8.77;7.87;;;;;;;15.35;nan;98941.66;5046497;28;20221;-79
2023/06/02 00:33:22;;;;;;;9.40;7.90;;;;;;;15.33;nan;98945.72;5067715;28;20401;-79
2023/06/02 00:35:49;;;;;;;8.30;7.50;;;;;;;15.26;nan;98937.84;5069686;28;20203;-79
2023/06/02 00:38:17;;;;;;;8.93;8.03;;;;;;;15.25;nan;98947.06;5069071;28;20201;-78
2023/06/02 00:40:44;;;;;;;8.63;7.90;;;;;;;15.26;nan;98942.44;5070740;28;20238;-79
2023/06/02 00:43:11;;;;;;;8.77;7.80;;;;;;;15.20;nan;98947.03;5067134;28;20220;-80
2023/06/02 00:45:37;;;;;;;8.93;8.13;;;;;;;15.17;nan;98942.16;5063342;28;20189;-80
2023/06/02 00:48:05;;;;;;;8.50;7.63;;;;;;;15.20;nan;98948.94;5055576;28;20644;-79
2023/06/02 00:50:32;;;;;;;10.00;7.70;;;;;;;15.22;nan;98947.56;5052799;28;20596;-79
2023/06/02 00:52:59;;;;;;;8.77;7.63;;;;;;;15.21;nan;98951.34;5054721;28;20190;-79
2023/06/02 00:55:30;;;;;;;8.40;7.67;;;;;;;15.16;nan;98943.25;5065378;28;20575;-79
2023/06/02 00:57:58;;;;;;;8.50;7.80;;;;;;;15.13;nan;98946.47;5073014;28;20193;-79
2023/06/02 01:00:26;;;;;;;8.53;7.60;;;;;;;15.16;nan;98942.44;5065303;28;20591;-80
2023/06/02 01:02:54;;;;;;;8.80;7.90;;;;;;;15.10;nan;98933.50;5048370;28;20194;-80
2023/06/02 01:05:21;;;;;;;9.20;7.93;;;;;;;15.08;nan;98937.53;5056948;28;20194;-79
2023/06/02 01:07:54;;;;;;;10.53;7.77;;;;;;;15.08;nan;98937.53;5053975;28;20271;-80
2023/06/02 01:10:21;;;;;;;8.80;8.00;;;;;;;15.02;nan;98931.34;5061255;28;20240;-80
2023/06/02 01:12:49;;;;;;;8.10;7.40;;;;;;;15.01;nan;98934.28;5066254;28;20200;-79
2023/06/02 01:15:16;;;;;;;8.57;7.40;;;;;;;14.95;nan;98939.66;5073052;28;20724;-79
2023/06/02 01:17:46;;;;;;;8.90;8.00;;;;;;;14.93;nan;98931.03;5073015;28;20181;-79
2023/06/02 01:20:14;;;;;;;8.57;7.77;;;;;;;14.95;nan;98931.56;5073137;28;20266;-79
2023/06/02 01:23:16;;;;;;;8.67;7.70;;;;;;;14.91;nan;98933.19;5037351;28;20657;-80
2023/06/02 01:25:44;;;;;;;8.10;7.40;;;;;;;14.94;nan;98934.53;5073836;28;20228;-79
2023/06/02 01:28:11;;;;;;;8.17;7.47;;;;;;;14.88;nan;98932.91;5074201;28;20407;-80
2023/06/02 01:30:38;;;;;;;7.93;7.23;;;;;;;14.85;nan;98945.03;5074304;28;20747;-79
2023/06/02 01:33:21;;;;;;;7.87;7.27;;;;;;;14.78;nan;98944.47;5075070;28;20619;-79
2023/06/02 01:35:50;;;;;;;8.50;7.70;;;;;;;14.70;nan;98944.13;5058103;28;20201;-79
2023/06/02 01:38:17;;;;;;;9.43;7.30;;;;;;;14.67;nan;98950.06;5073538;28;20280;-78
2023/06/02 01:40:45;;;;;;;8.90;8.13;;;;;;;14.67;nan;98950.88;5063213;28;20567;-79
2023/06/02 01:43:15;;;;;;;8.63;7.77;;;;;;;14.51;nan;98952.66;5069712;28;20211;-79
2023/06/02 01:45:42;;;;;;;8.67;7.87;;;;;;;14.60;nan;98946.81;5060696;28;20224;-79
2023/06/02 01:48:10;;;;;;;7.97;7.37;;;;;;;14.44;nan;98960.19;5068896;28;20185;-79
2023/06/02 01:50:37;;;;;;;8.77;8.00;;;;;;;14.30;nan;98964.38;5070454;28;20220;-79
2023/06/02 01:53:04;;;;;;;8.97;8.17;;;;;;;14.25;nan;98966.22;5066176;28;20181;-79
2023/06/02 01:55:33;;;;;;;8.27;7.57;;;;;;;14.20;nan;98963.50;5066498;28;20185;-78
2023/06/02 01:58:00;;;;;;;8.30;7.60;;;;;;;14.22;nan;98966.75;5057540;28;20301;-79
2023/06/02 02:00:27;;;;;;;8.83;8.00;;;;;;;14.16;nan;98965.91;5073706;28;20207;-79
2023/06/02 02:02:54;;;;;;;9.60;8.70;;;;;;;14.13;nan;98954.84;5060434;28;20216;-79
2023/06/02 02:05:21;;;;;;;8.97;8.17;;;;;;;14.08;nan;98959.13;5067986;28;20255;-79
2023/06/02 02:07:50;;;;;;;8.73;8.00;;;;;;;14.00;nan;98954.19;5060126;28;20225;-79
2023/06/02 02:10:18;;;;;;;9.60;8.63;;;;;;;14.00;nan;98950.69;5073470;28;20221;-79
2023/06/02 02:12:45;;;;;;;8.93;8.17;;;;;;;13.96;nan;98950.38;5077419;28;20201;-80
2023/06/02 02:15:12;;;;;;;8.93;8.17;;;;;;;14.01;nan;98941.53;5070561;28;20281;-79
2023/06/02 02:17:44;;;;;;;9.33;8.43;;;;;;;13.99;nan;98949.91;5061973;28;20190;-78
2023/06/02 02:20:16;;;;;;;9.17;8.40;;;;;;;13.95;nan;98938.00;5067933;28;20754;-79
2023/06/02 02:22:45;;;;;;;8.60;7.90;;;;;;;13.97;nan;98951.22;5076352;28;20193;-79
2023/06/02 02:25:12;;;;;;;9.20;8.40;;;;;;;13.87;nan;98946.56;5054566;28;20659;-78
2023/06/02 02:27:39;;;;;;;9.37;8.37;;;;;;;13.83;nan;98941.94;5058016;28;20255;-79
2023/06/02 02:30:08;;;;;;;9.47;8.23;;;;;;;13.81;nan;98949.47;5055597;28;20206;-80
2023/06/02 02:32:37;;;;;;;9.33;8.43;;;;;;;13.77;nan;98949.16;5076713;28;20185;-79
2023/06/02 02:35:05;;;;;;;9.43;8.63;;;;;;;13.75;nan;98947.81;5063177;28;20660;-79
2023/06/02 02:37:32;;;;;;;9.00;8.07;;;;;;;13.69;nan;98949.63;5075664;28;20664;-80
2023/06/02 02:40:14;;;;;;;8.90;8.00;;;;;;;13.62;nan;98944.44;5060298;28;20196;-79
2023/06/02 02:42:41;;;;;;;9.30;8.40;;;;;;;13.57;nan;98946.31;5059990;28;20656;-79
2023/06/02 02:45:09;;;;;;;9.10;8.40;;;;;;;13.59;nan;98938.78;5060096;28;20552;-80
2023/06/02 02:47:37;;;;;;;8.83;8.03;;;;;;;13.53;nan;98940.59;5073095;28;20201;-79
2023/06/02 02:50:05;;;;;;;9.10;8.30;;;;;;;13.46;nan;98937.31;5079341;28;20639;-80
2023/06/02 02:52:32;;;;;;;9.33;8.53;;;;;;;13.49;nan;98941.38;5065686;28;20276;-79
2023/06/02 02:54:59;;;;;;;9.43;8.57;;;;;;;13.33;nan;98953.06;5067257;28;20193;-79
2023/06/02 02:57:28;;;;;;;9.60;8.70;;;;;;;13.36;nan;98949.84;5071526;28;20242;-79
2023/06/02 02:59:55;;;;;;;9.80;8.90;;;;;;;13.36;nan;98952.53;5062539;28;20227;-79
2023/06/02 03:02:22;;;;;;;9.70;8.90;;;;;;;13.35;nan;98956.28;5070276;28;20250;-80
2023/06/02 03:04:51;;;;;;;9.60;8.80;;;;;;;13.35;nan;98951.72;5078950;28;20224;-80
2023/06/02 03:07:19;;;;;;;10.23;9.33;;;;;;;13.31;nan;98953.31;5049685;28;20206;-80
2023/06/02 03:09:47;;;;;;;10.47;9.47;;;;;;;13.27;nan;98954.88;5062583;28;20200;-80
2023/06/02 03:12:16;;;;;;;11.00;10.00;;;;;;;13.31;nan;98953.31;5059003;28;20327;-79
2023/06/02 03:14:42;;;;;;;10.47;9.47;;;;;;;13.30;nan;98950.88;5058801;28;20222;-80
2023/06/02 03:17:09;;;;;;;10.50;9.50;;;;;;;13.30;nan;98945.50;5070925;28;20189;-79
2023/06/02 03:19:37;;;;;;;10.40;9.43;;;;;;;13.34;nan;98954.69;5079074;28;20198;-79
2023/06/02 03:22:05;;;;;;;10.60;9.60;;;;;;;13.38;nan;98959.31;5069098;28;20395;-79
2023/06/02 03:24:33;;;;;;;10.43;9.43;;;;;;;13.46;nan;98953.47;5050056;28;20672;-79
2023/06/02 03:27:03;;;;;;;10.87;9.77;;;;;;;13.49;nan;98946.75;5039435;28;20205;-80
2023/06/02 03:29:30;;;;;;;10.70;9.50;;;;;;;13.47;nan;98947.03;5078854;28;20192;-80
2023/06/02 03:31:58;;;;;;;10.13;9.33;;;;;;;13.52;nan;98943.56;5060723;28;20228;-79
2023/06/02 03:34:29;;;;;;;10.33;9.37;;;;;;;13.61;nan;98950.09;5043173;28;20196;-79
2023/06/02 03:37:01;;;;;;;11.10;9.70;;;;;;;13.68;nan;98951.50;5069382;28;20228;-80
2023/06/02 03:39:29;;;;;;;9.90;9.00;;;;;;;13.76;nan;98949.44;5064803;28;20205;-79
2023/06/02 03:41:56;;;;;;;10.40;9.30;;;;;;;13.84;nan;98962.41;5060851;28;20257;-79
2023/06/02 03:44:23;;;;;;;9.67;8.87;;;;;;;13.89;nan;98960.59;5079845;28;20245;-79
2023/06/02 03:46:49;;;;;;;9.80;8.90;;;;;;;13.96;nan;98966.56;5080678;28;20245;-80
2023/06/02 03:49:17;;;;;;;10.70;9.67;;;;;;;14.03;nan;98960.97;5080330;28;20185;-79
2023/06/02 03:51:46;;;;;;;9.33;8.53;;;;;;;14.09;nan;98960.72;5079649;28;20208;-80
2023/06/02 03:54:13;;;;;;;9.53;8.60;;;;;;;14.19;nan;98959.97;5079296;28;20198;-80
2023/06/02 03:56:40;;;;;;;9.37;8.47;;;;;;;14.27;nan;98958.72;5079088;28;20191;-79
2023/06/02 03:59:08;;;;;;;9.53;8.63;;;;;;;14.42;nan;98972.28;5079930;28;20185;-80
2023/06/02 04:01:35;;;;;;;9.70;8.70;;;;;;;14.58;nan;98976.72;5079822;28;20221;-79
2023/06/02 04:04:04;;;;;;;9.40;8.50;;;;;;;15.31;nan;98966.75;5078852;28;20201;-79
2023/06/02 04:06:31;;;;;;;8.50;7.47;;;;;;;16.65;nan;98968.97;5079328;28;20260;-79
2023/06/02 04:08:58;;;;;;;8.30;7.50;;;;;;;18.09;nan;98962.50;5078988;28;20228;-79
2023/06/02 04:11:26;;;;;;;7.97;7.17;;;;;;;19.40;nan;98971.88;5077754;28;20657;-80
2023/06/02 04:13:53;;;;;;;7.47;6.77;;;;;;;20.47;nan;98962.88;5073154;28;20196;-80
2023/06/02 04:16:21;;;;;;;7.47;6.87;;;;;;;21.33;nan;98972.06;5055565;28;20201;-79
2023/06/02 04:18:48;;;;;;;7.87;6.97;;;;;;;22.00;nan;98975.72;5072160;28;20288;-80
2023/06/02 04:21:15;;;;;;;9.27;6.30;;;;;;;22.66;nan;98974.84;5073353;28;20602;-80
2023/06/02 04:23:43;;;;;;;7.27;6.57;;;;;;;23.15;nan;98972.94;5072019;28;20207;-81
2023/06/02 04:26:10;;;;;;;6.80;6.20;;;;;;;23.70;nan;98973.22;5072269;28;20188;-80
2023/06/02 04:28:37;;;;;;;8.93;6.70;;;;;;;24.08;nan;98976.06;5071685;28;20189;-83
2023/06/02 04:31:05;;;;;;;7.33;6.00;;;;;;;24.13;nan;98964.97;5071676;28;20249;-80
2023/06/02 04:33:36;;;;;;;6.80;6.20;;;;;;;23.79;nan;98970.47;5072131;28;20662;-82
2023/06/02 04:36:05;;;;;;;7.13;6.40;;;;;;;22.94;nan;98966.47;5071551;28;20231;-83
2023/06/02 04:38:32;;;;;;;7.07;6.37;;;;;;;22.15;nan;98969.09;5071608;28;20202;-82
2023/06/02 04:41:01;;;;;;;6.63;6.03;;;;;;;21.49;nan;98976.06;5071584;28;20199;-81
2023/06/02 04:43:29;;;;;;;7.17;6.40;;;;;;;20.95;nan;98974.22;5067665;28;20235;-80
2023/06/02 04:45:56;;;;;;;7.73;6.30;;;;;;;20.56;nan;98974.69;5057539;28;20188;-81
2023/06/02 04:48:24;;;;;;;7.23;6.53;;;;;;;20.37;nan;98984.81;5045541;28;20203;-83
2023/06/02 04:50:51;;;;;;;7.83;6.43;;;;;;;20.20;nan;98979.94;5046916;28;20709;-82
2023/06/02 04:53:17;;;;;;;7.90;6.33;;;;;;;20.09;nan;98982.00;5041792;28;20193;-83
2023/06/02 04:55:45;;;;;;;7.33;6.63;;;;;;;20.10;nan;98983.63;5042128;28;20192;-82
2023/06/02 04:58:13;;;;;;;7.00;6.40;;;;;;;20.13;nan;98983.03;5048075;28;20718;-82
2023/06/02 05:00:40;;;;;;;7.47;6.73;;;;;;;20.14;nan;98981.09;5059951;28;20192;-83
2023/06/02 05:03:08;;;;;;;8.13;6.93;;;;;;;20.23;nan;98990.19;5062539;28;20195;-83
2023/06/02 05:05:35;;;;;;;7.47;6.77;;;;;;;20.27;nan;98987.69;5048837;28;20535;-83
2023/06/02 05:08:02;;;;;;;7.73;7.00;;;;;;;20.33;nan;98991.97;5041505;28;20236;-83
2023/06/02 05:10:29;;;;;;;7.43;6.77;;;;;;;19.95;nan;98985.78;5069647;28;20275;-83
2023/06/02 05:12:56;;;;;;;7.00;6.40;;;;;;;20.21;nan;98982.34;5070987;28;20201;-83
2023/06/02 05:15:23;;;;;;;7.77;6.97;;;;;;;20.18;nan;98996.53;5052897;28;20207;-85
2023/06/02 05:17:53;;;;;;;8.93;7.30;;;;;;;19.57;nan;98993.13;5060509;28;20196;-83
2023/06/02 05:20:21;;;;;;;9.07;7.17;;;;;;;19.77;nan;98999.09;5067586;28;20256;-83
2023/06/02 05:22:49;;;;;;;7.67;7.07;;;;;;;20.01;nan;98993.56;5055763;28;20280;-83
2023/06/02 05:25:16;;;;;;;8.37;7.53;;;;;;;20.21;nan;98990.50;5070892;28;20204;-83
2023/06/02 05:27:43;;;;;;;12.53;7.90;;;;;;;20.51;nan;98991.09;5072144;28;20656;-83
2023/06/02 05:30:10;;;;;;;8.50;7.00;;;;;;;20.73;nan;98996.66;5071073;28;20192;-83
2023/06/02 05:32:39;;;;;;;7.87;6.97;;;;;;;20.47;nan;99006.41;5054447;28;20359;-83
2023/06/02 05:35:08;;;;;;;8.73;7.10;;;;;;;20.57;nan;99000.81;5062594;28;20256;-84
2023/06/02 05:37:34;;;;;;;10.03;7.47;;;;;;;20.42;nan;99004.59;5059097;28;20198;-84
2023/06/02 05:40:02;;;;;;;11.03;7.13;;;;;;;20.70;nan;99012.81;5054322;28;20710;-83
2023/06/02 05:42:30;;;;;;;8.37;6.77;;;;;;;21.06;nan;99003.66;5054312;28;20205;-83
2023/06/02 05:44:58;;;;;;;9.40;7.07;;;;;;;21.29;nan;99009.19;5054758;28;20586;-83
2023/06/02 05:47:26;;;;;;;9.47;7.63;;;;;;;21.31;nan;99020.63;5037751;28;20266;-84
2023/06/02 05:49:53;;;;;;;10.83;6.83;;;;;;;21.55;nan;99021.19;5062335;28;20224;-83
2023/06/02 05:52:20;;;;;;;7.60;6.83;;;;;;;21.69;nan;99027.41;5060787;28;20241;-83
2023/06/02 05:54:47;;;;;;;8.90;6.97;;;;;;;21.84;nan;99027.06;5047671;28;20196;-84
2023/06/02 05:57:14;;;;;;;7.63;6.37;;;;;;;21.93;nan;99019.78;5050359;28;20217;-84
2023/06/02 05:59:41;;;;;;;9.33;7.33;;;;;;;21.17;nan;99019.81;5067067;28;20189;-85
2023/06/02 06:02:09;;;;;;;8.10;6.87;;;;;;;21.58;nan;99019.75;5051265;28;20200;-84
2023/06/02 06:04:37;;;;;;;7.43;6.73;;;;;;;21.74;nan;99021.81;5058499;28;20200;-84
2023/06/02 06:07:05;;;;;;;7.27;6.60;;;;;;;21.97;nan;99027.38;5054051;28;20242;-83
2023/06/02 06:09:32;;;;;;;8.23;6.47;;;;;;;22.24;nan;99024.53;5061524;28;20202;-83
2023/06/02 06:12:01;;;;;;;6.93;6.25;;;;;;;21.75;nan;99026.16;5045849;28;20211;-86
2023/06/02 06:14:28;;;;;;;7.07;6.37;;;;;;;21.93;nan;99027.97;5046492;28;20293;-83
2023/06/02 06:16:55;;;;;;;7.73;7.03;;;;;;;21.79;nan;99021.72;5035866;28;20680;-82
2023/06/02 06:19:21;;;;;;;7.97;7.13;;;;;;;22.16;nan;99019.81;5047336;28;20191;-81
2023/06/02 06:21:49;;;;;;;9.20;6.55;;;;;;;22.20;nan;99023.53;5031553;28;20199;-82
2023/06/02 06:24:16;;;;;;;8.63;6.60;;;;;;;22.22;nan;99021.28;5048083;28;20197;-83
2023/06/02 06:26:43;;;;;;;10.18;6.55;;;;;;;22.39;nan;99024.16;5063593;28;20753;-78
2023/06/02 06:29:10;;;;;;;10.23;5.88;;;;;;;22.45;nan;99030.25;5045689;28;20217;-79
2023/06/02 06:31:38;;;;;;;9.15;5.82;;;;;;;22.67;nan;99032.97;5053018;28;20210;-79
2023/06/02 06:34:08;;;;;;;6.60;5.63;;;;;;;22.66;nan;99039.56;5053231;28;20185;-78
2023/06/02 06:36:36;;;;;;;8.43;5.40;;;;;;;22.36;nan;99039.19;5058705;28;20706;-79
2023/06/02 06:39:04;;;;;;;6.95;5.25;;;;;;;22.77;nan;99041.72;5050171;28;20238;-79
2023/06/02 06:41:32;;;;;;;9.30;5.57;;;;;;;23.10;nan;99050.38;5062569;28;20280;-80
2023/06/02 06:44:00;;;;;;;8.85;5.18;;;;;;;23.24;nan;99036.59;5067309;28;20269;-79
2023/06/02 06:46:27;;;;;;;8.25;6.85;;;;;;;23.15;nan;99038.50;5063781;28;20603;-79
2023/06/02 06:48:54;;;;;;;8.18;4.72;;;;;;;23.27;nan;99041.47;5056170;28;20277;-79
2023/06/02 06:51:21;;;;;;;4.90;4.35;;;;;;;23.51;nan;99039.16;5055026;28;20213;-79
2023/06/02 06:53:48;;;;;;;5.10;4.07;;;;;;;23.65;nan;99045.28;5061364;28;20245;-78
2023/06/02 06:56:15;;;;;;;5.15;4.28;;;;;;;23.67;nan;99042.22;5067477;28;20184;-79
2023/06/02 06:58:41;;;;;;;6.63;4.10;;;;;;;23.48;nan;99041.69;5067063;28;20185;-80
2023/06/02 07:01:08;;;;;;;7.60;4.00;;;;;;;23.75;nan;99040.63;5059260;28;20192;-79
2023/06/02 07:03:35;;;;;;;5.40;4.10;;;;;;;23.63;nan;99039.31;5072797;28;20192;-79
2023/06/02 07:06:02;;;;;;;7.13;3.72;;;;;;;23.48;nan;99039.75;5068186;28;20672;-79
2023/06/02 07:08:30;;;;;;;5.10;3.60;;;;;;;23.61;nan;99036.09;5066794;28;20275;-80
2023/06/02 07:10:56;;;;;;;5.80;4.10;;;;;;;23.88;nan;99045.94;5061223;28;20674;-79
2023/06/02 07:13:25;;;;;;;6.28;3.92;;;;;;;23.73;nan;99045.59;5059944;28;20189;-79
2023/06/02 07:15:52;;;;;;;4.07;3.67;;;;;;;23.58;nan;99044.94;5065552;28;20188;-79
2023/06/02 07:18:19;;;;;;;5.57;4.10;;;;;;;23.71;nan;99037.72;5072787;28;20178;-79
2023/06/02 07:20:47;;;;;;;4.35;3.72;;;;;;;23.88;nan;99040.47;5066597;28;20194;-79
2023/06/02 07:23:14;;;;;;;5.82;3.78;;;;;;;24.01;nan;99045.00;5072586;28;20195;-79
2023/06/02 07:25:41;;;;;;;5.80;3.95;;;;;;;24.14;nan;99040.47;5065755;28;20190;-79
2023/06/02 07:28:07;;;;;;;8.75;3.83;;;;;;;23.99;nan;99040.94;5058928;28;20189;-79
2023/06/02 07:30:35;;;;;;;7.55;3.63;;;;;;;24.14;nan;99035.81;5065211;28;20244;-79
2023/06/02 07:33:02;;;;;;;6.32;3.72;;;;;;;24.05;nan;99040.47;5072467;28;20258;-80
2023/06/02 07:35:29;;;;;;;6.47;3.95;;;;;;;23.90;nan;99040.13;5072230;28;20196;-79
2023/06/02 07:37:56;;;;;;;5.53;3.60;;;;;;;24.17;nan;99037.09;5070191;28;20185;-80
2023/06/02 07:40:22;;;;;;;5.88;3.83;;;;;;;24.17;nan;99039.06;5064019;28;20651;-80
2023/06/02 07:42:49;;;;;;;7.20;4.18;;;;;;;24.45;nan;99032.88;5072199;28;20189;-80
2023/06/02 07:45:16;;;;;;;8.05;3.80;;;;;;;24.52;nan;99032.41;5055910;28;20190;-78
2023/06/02 07:47:43;;;;;;;6.47;3.88;;;;;;;24.81;nan;99031.69;5071924;28;20654;-78
2023/06/02 07:50:10;;;;;;;5.70;3.95;;;;;;;24.98;nan;99032.44;5070424;28;20199;-79
2023/06/02 07:52:37;;;;;;;4.95;4.10;;;;;;;24.91;nan;99032.16;5070249;28;20207;-79
2023/06/02 07:55:05;;;;;;;11.15;4.25;;;;;;;24.54;nan;99033.66;5063481;28;20193;-80
2023/06/02 07:57:31;;;;;;;7.68;4.35;;;;;;;24.85;nan;99027.16;5040465;28;20203;-79
2023/06/02 08:00:04;;;;;;;4.85;3.88;;;;;;;25.07;nan;99037.88;5064409;28;20187;-79
2023/06/02 08:02:39;;;;;;;5.88;4.28;;;;;;;25.01;nan;99027.47;5066645;28;20202;-79
2023/06/02 08:05:07;;;;;;;5.50;3.92;;;;;;;25.01;nan;99024.72;5059762;28;20667;-79
2023/06/02 08:07:34;;;;;;;5.25;3.90;;;;;;;25.01;nan;99021.97;5062060;28;20230;-78
2023/06/02 08:10:03;;;;;;;4.35;4.00;;;;;;;25.23;nan;99018.97;5061660;28;20216;-80
2023/06/02 08:12:29;;;;;;;7.97;3.92;;;;;;;24.91;nan;99021.22;5071822;28;20206;-78
2023/06/02 08:14:56;;;;;;;5.10;3.65;;;;;;;25.07;nan;99032.41;5069014;28;20616;-79
2023/06/02 08:17:29;;;;;;;5.60;3.40;;;;;;;25.31;nan;99023.59;5071639;28;20195;-79
2023/06/02 08:19:57;;;;;;;5.22;3.85;;;;;;;25.05;nan;99025.66;5064530;28;20612;-79
2023/06/02 08:22:25;;;;;;;5.03;4.10;;;;;;;24.81;nan;99024.28;5070377;28;20552;-79
2023/06/02 08:24:56;;;;;;;4.97;3.90;;;;;;;24.64;nan;99020.75;5062022;28;20211;-79
2023/06/02 08:27:23;;;;;;;5.57;3.97;;;;;;;25.10;nan;99022.75;5070871;28;20190;-80
2023/06/02 08:29:51;;;;;;;6.55;3.50;;;;;;;25.23;nan;99021.69;5071779;28;20193;-78
2023/06/02 08:32:18;;;;;;;7.85;4.25;;;;;;;25.41;nan;99021.28;5064251;28;20205;-78
2023/06/02 08:34:47;;;;;;;5.25;3.90;;;;;;;25.56;nan;99006.22;5069826;28;20193;-78
2023/06/02 08:37:17;;;;;;;4.28;3.70;;;;;;;25.52;nan;99020.91;5071804;28;20179;-78
2023/06/02 08:39:45;;;;;;;8.85;3.53;;;;;;;25.48;nan;99009.75;5070362;28;20195;-78
2023/06/02 08:42:12;;;;;;;4.40;4.00;;;;;;;25.49;nan;99018.78;5065864;28;20202;-79
2023/06/02 08:44:40;;;;;;;3.72;3.42;;;;;;;25.71;nan;99019.31;5067910;28;20217;-78
2023/06/02 08:47:12;;;;;;;5.57;4.10;;;;;;;25.36;nan;99015.97;5068623;28;20187;-78
2023/06/02 08:49:44;;;;;;;4.95;4.25;;;;;;;25.31;nan;99015.38;5067824;28;20246;-79
2023/06/02 08:52:15;;;;;;;4.85;3.85;;;;;;;25.54;nan;99005.72;5066929;28;20204;-79
2023/06/02 08:54:42;;;;;;;7.88;3.90;;;;;;;25.66;nan;99005.78;5058278;28;20280;-79
2023/06/02 08:57:12;;;;;;;8.18;4.00;;;;;;;25.96;nan;99006.53;5066014;28;20200;-79
2023/06/02 08:59:40;;;;;;;5.18;3.70;;;;;;;25.88;nan;99010.16;5056098;28;20180;-78
2023/06/02 09:02:06;;;;;;;5.88;4.05;;;;;;;25.22;nan;99012.66;5068682;28;20185;-79
2023/06/02 09:04:33;;;;;;;5.10;3.67;;;;;;;25.01;nan;99013.75;5069714;28;20195;-80
2023/06/02 09:07:12;;;;;;;6.03;3.97;;;;;;;24.73;nan;99005.91;5063442;28;20189;-80
2023/06/02 09:09:43;;;;;;;6.18;3.80;;;;;;;25.04;nan;99016.63;5069046;28;20193;-79
2023/06/02 09:12:10;;;;;;;7.72;3.97;;;;;;;24.97;nan;99008.09;5067380;28;20200;-78
2023/06/02 09:14:38;;;;;;;5.65;4.20;;;;;;;25.19;nan;99007.06;5066803;28;20257;-78
2023/06/02 09:17:27;;;;;;;5.70;4.40;;;;;;;25.73;nan;99011.56;5068297;28;20192;-78
2023/06/02 09:19:57;;;;;;;9.18;4.18;;;;;;;26.06;nan;99008.06;5066743;28;20187;-78
2023/06/02 09:22:24;;;;;;;6.63;4.28;;;;;;;25.83;nan;99002.13;5064700;28;20192;-79
2023/06/02 09:24:53;;;;;;;4.75;4.07;;;;;;;26.02;nan;99005.22;5067626;28;20204;-80
2023/06/02 09:27:20;;;;;;;5.05;3.72;;;;;;;26.23;nan;99000.50;5059485;28;20695;-82
2023/06/02 09:29:47;;;;;;;9.38;4.20;;;;;;;26.41;nan;99000.34;5058357;28;20195;-80
2023/06/02 09:32:16;;;;;;;5.38;4.07;;;;;;;26.29;nan;99004.66;5050261;28;20216;-80
2023/06/02 09:34:45;;;;;;;5.35;4.43;;;;;;;26.41;nan;99000.34;5058049;28;20189;-80
2023/06/02 09:37:16;;;;;;;6.80;3.97;;;;;;;26.24;nan;99001.31;5055811;28;20190;-82
2023/06/02 09:39:46;;;;;;;4.25;3.85;;;;;;;26.39;nan;98997.94;5049086;28;20281;-80
2023/06/02 09:42:14;;;;;;;4.30;4.00;;;;;;;26.49;nan;98994.75;5048508;28;20190;-81
2023/06/02 09:45:04;;;;;;;4.45;4.03;;;;;;;26.33;nan;98990.25;5051058;28;20213;-83
2023/06/02 09:47:37;;;;;;;6.43;4.18;;;;;;;26.48;nan;98989.59;5047793;28;20711;-82
2023/06/02 09:50:05;;;;;;;5.22;3.75;;;;;;;26.62;nan;98996.41;5055900;28;20199;-81
2023/06/02 09:52:32;;;;;;;5.82;4.20;;;;;;;26.73;nan;98996.75;5066458;28;20193;-81
2023/06/02 09:55:00;;;;;;;5.15;3.75;;;;;;;26.45;nan;98991.09;5065508;28;20189;-82
2023/06/02 09:57:28;;;;;;;5.80;3.88;;;;;;;26.56;nan;98999.69;5058342;28;20186;-82
2023/06/02 09:59:55;;;;;;;5.10;4.30;;;;;;;26.70;nan;98998.22;5052356;28;20192;-81
2023/06/02 10:02:22;;;;;;;4.10;3.70;;;;;;;26.56;nan;98989.50;5053617;28;20606;-81
2023/06/02 10:04:49;;;;;;;5.28;3.97;;;;;;;26.32;nan;98983.94;5054779;28;20193;-81
2023/06/02 10:08:01;;;;;;;4.60;4.20;;;;;;;26.57;nan;98988.38;5058129;28;20189;-81
2023/06/02 10:10:33;;;;;;;5.93;4.00;;;;;;;26.38;nan;98987.28;5087862;28;20698;-81
2023/06/02 10:13:18;;;;;;;5.13;3.92;;;;;;;26.17;nan;98976.34;5059646;28;20243;-81
2023/06/02 10:16:09;;;;;;;4.88;3.95;;;;;;;26.69;nan;98979.31;5063984;28;20205;-81
2023/06/02 10:19:00;;;;;;;7.60;4.15;;;;;;;26.61;nan;98981.03;5058269;28;20215;-81
2023/06/02 10:21:35;;;;;;;7.95;4.22;;;;;;;25.98;nan;98976.84;5058534;28;20671;-82
2023/06/02 10:24:30;;;;;;;5.40;3.72;;;;;;;26.40;nan;98980.31;5050413;28;20543;-81
2023/06/02 10:27:26;;;;;;;4.20;3.80;;;;;;;26.58;nan;98975.44;5047344;28;20648;-81
2023/06/02 10:29:54;;;;;;;5.05;3.55;;;;;;;26.78;nan;98969.06;5057388;28;20197;-80
2023/06/02 10:32:23;;;;;;;3.95;3.55;;;;;;;27.19;nan;98965.31;5062729;28;21399;-80
2023/06/02 10:34:52;;;;;;;10.77;3.67;;;;;;;26.93;nan;98959.34;5061430;28;20648;-80
2023/06/02 10:37:20;;;;;;;6.35;3.92;;;;;;;26.27;nan;98956.69;5068638;28;20655;-81
2023/06/02 10:39:51;;;;;;;4.88;3.92;;;;;;;26.73;nan;98963.78;5065414;28;20651;-81
2023/06/02 10:42:19;;;;;;;3.97;3.60;;;;;;;26.86;nan;98957.19;5064255;28;20196;-81
2023/06/02 10:44:47;;;;;;;4.20;3.80;;;;;;;27.26;nan;98961.97;5061177;28;20217;-80
2023/06/02 10:47:17;;;;;;;5.60;3.67;;;;;;;27.25;nan;98955.66;5065221;28;20283;-81
2023/06/02 10:49:53;;;;;;;5.38;4.05;;;;;;;26.62;nan;98955.19;5067774;28;20193;-81
2023/06/02 10:52:21;;;;;;;4.00;3.67;;;;;;;26.72;nan;98952.00;5069925;28;20345;-81
2023/06/02 10:55:06;;;;;;;3.70;3.40;;;;;;;27.26;nan;98960.00;5068205;28;20525;-81
2023/06/02 10:58:03;;;;;;;5.15;3.58;;;;;;;26.86;nan;98957.19;5070673;28;20185;-80
2023/06/02 11:00:32;;;;;;;7.40;3.75;;;;;;;26.47;nan;98966.03;5064434;28;20193;-80
2023/06/02 11:03:00;;;;;;;7.43;3.88;;;;;;;27.17;nan;98957.41;5068644;28;20232;-80
2023/06/02 11:05:31;;;;;;;4.70;3.75;;;;;;;27.47;nan;98962.63;5070282;28;20195;-80
2023/06/02 11:08:11;;;;;;;4.78;3.90;;;;;;;27.28;nan;98954.19;5064887;28;20599;-81
2023/06/02 11:10:44;;;;;;;5.25;3.50;;;;;;;27.99;nan;98957.91;5069794;28;20276;-81
2023/06/02 11:13:15;;;;;;;6.63;3.95;;;;;;;28.32;nan;98965.13;5060624;28;20684;-80
2023/06/02 11:16:02;;;;;;;6.00;4.03;;;;;;;28.14;nan;98952.81;5056954;28;20193;-81
2023/06/02 11:18:30;;;;;;;3.95;3.65;;;;;;;28.23;nan;98957.00;5064090;28;20194;-80
2023/06/02 11:20:58;;;;;;;4.57;3.90;;;;;;;28.10;nan;98947.19;5053166;28;20185;-82
2023/06/02 11:23:25;;;;;;;5.32;3.60;;;;;;;28.33;nan;98948.22;5053259;28;20691;-80
2023/06/02 11:26:01;;;;;;;5.55;3.80;;;;;;;27.99;nan;98941.41;5063932;28;20201;-80
2023/06/02 11:28:28;;;;;;;5.25;3.47;;;;;;;28.20;nan;98943.94;5064742;28;20188;-81
2023/06/02 11:31:12;;;;;;;5.88;3.47;;;;;;;28.58;nan;98939.81;5054767;28;20197;-81
2023/06/02 11:33:48;;;;;;;4.38;3.53;;;;;;;28.55;nan;98929.50;5055255;28;20198;-81
2023/06/02 11:36:17;;;;;;;5.10;3.75;;;;;;;28.69;nan;98924.38;5052474;28;20889;-80
2023/06/02 11:38:44;;;;;;;4.25;3.72;;;;;;;28.70;nan;98923.97;5052666;28;20303;-81
2023/06/02 11:41:12;;;;;;;4.18;3.47;;;;;;;28.85;nan;98927.94;5067917;28;20268;-81
2023/06/02 11:43:40;;;;;;;4.85;3.63;;;;;;;28.34;nan;98929.75;5067886;28;20213;-82
2023/06/02 11:46:18;;;;;;;4.57;3.55;;;;;;;28.72;nan;98932.75;5069396;28;20276;-80
2023/06/02 11:48:46;;;;;;;5.30;3.83;;;;;;;28.73;nan;98917.81;5063673;28;20911;-80
2023/06/02 11:51:15;;;;;;;4.55;3.28;;;;;;;28.72;nan;98926.44;5060709;28;20197;-81
2023/06/02 11:53:45;;;;;;;4.07;3.47;;;;;;;28.44;nan;98934.75;5063198;28;20204;-82
2023/06/02 11:56:13;;;;;;;5.78;3.70;;;;;;;29.25;nan;98944.25;5064397;28;20190;-81
2023/06/02 11:58:45;;;;;;;3.97;3.50;;;;;;;29.32;nan;98944.41;5062457;28;20185;-81